sensor_id;sensor_type;location;lat;lon;timestamp;pressure;altitude;pressure_sealevel;temperature;humidity
76331;BME280;65148;51.912;15.570;2023-05-29T00:03:16;101854.51;;;10.66;78.44
76331;BME280;65148;51.912;15.570;2023-05-29T00:18:18;101855.50;;;10.55;77.52
76331;BME280;65148;51.912;15.570;2023-05-29T00:33:38;101860.50;;;10.36;78.93
76331;BME280;65148;51.912;15.570;2023-05-29T00:48:41;101843.84;;;10.33;78.91
76331;BME280;65148;51.912;15.570;2023-05-29T01:03:43;101848.95;;;10.24;79.26
76331;BME280;65148;51.912;15.570;2023-05-29T01:18:54;101847.92;;;10.08;80.25
76331;BME280;65148;51.912;15.570;2023-05-29T01:34:11;101846.02;;;9.82;82.72
76331;BME280;65148;51.912;15.570;2023-05-29T01:49:12;101847.52;;;9.95;87.35
76331;BME280;65148;51.912;15.570;2023-05-29T02:04:15;101849.84;;;9.86;86.02
76331;BME280;65148;51.912;15.570;2023-05-29T02:19:16;101856.64;;;9.83;87.50
76331;BME280;65148;51.912;15.570;2023-05-29T02:34:35;101846.72;;;9.72;88.36
76331;BME280;65148;51.912;15.570;2023-05-29T02:49:36;101835.63;;;9.79;88.98
76331;BME280;65148;51.912;15.570;2023-05-29T03:04:37;101846.59;;;9.84;90.31
76331;BME280;65148;51.912;15.570;2023-05-29T03:19:38;101847.06;;;10.03;94.51
76331;BME280;65148;51.912;15.570;2023-05-29T03:35:00;101863.98;;;10.32;96.56
76331;BME280;65148;51.912;15.570;2023-05-29T03:50:05;101861.34;;;10.69;95.62
76331;BME280;65148;51.912;15.570;2023-05-29T04:05:07;101884.34;;;11.25;93.64
76331;BME280;65148;51.912;15.570;2023-05-29T04:20:10;101886.31;;;11.77;93.51
76331;BME280;65148;51.912;15.570;2023-05-29T04:35:25;101893.03;;;12.21;91.92
76331;BME280;65148;51.912;15.570;2023-05-29T04:50:28;101900.46;;;12.76;89.56
76331;BME280;65148;51.912;15.570;2023-05-29T05:05:32;101887.09;;;13.15;88.04
76331;BME280;65148;51.912;15.570;2023-05-29T05:20:33;101902.29;;;13.72;85.57
76331;BME280;65148;51.912;15.570;2023-05-29T05:35:49;101896.84;;;14.27;80.82
76331;BME280;65148;51.912;15.570;2023-05-29T05:50:50;101912.34;;;14.85;77.03
76331;BME280;65148;51.912;15.570;2023-05-29T06:05:51;101921.95;;;15.46;72.37
76331;BME280;65148;51.912;15.570;2023-05-29T06:20:54;101934.23;;;16.01;67.64
76331;BME280;65148;51.912;15.570;2023-05-29T06:36:12;101944.34;;;16.67;60.33
76331;BME280;65148;51.912;15.570;2023-05-29T06:51:14;101963.11;;;17.16;62.36
76331;BME280;65148;51.912;15.570;2023-05-29T07:06:15;101971.93;;;17.78;58.11
76331;BME280;65148;51.912;15.570;2023-05-29T07:21:17;101976.33;;;17.93;62.17
76331;BME280;65148;51.912;15.570;2023-05-29T07:36:35;101979.37;;;18.32;60.21
76331;BME280;65148;51.912;15.570;2023-05-29T07:51:37;101977.77;;;18.81;57.62
76331;BME280;65148;51.912;15.570;2023-05-29T08:06:39;101983.24;;;19.48;56.26
76331;BME280;65148;51.912;15.570;2023-05-29T08:21:43;101992.37;;;20.10;52.71
76331;BME280;65148;51.912;15.570;2023-05-29T08:36:58;101983.85;;;20.46;51.80
76331;BME280;65148;51.912;15.570;2023-05-29T09:07:16;101986.63;;;21.32;45.00
76331;BME280;65148;51.912;15.570;2023-05-29T09:22:36;101988.95;;;21.30;44.93
76331;BME280;65148;51.912;15.570;2023-05-29T09:37:41;101987.28;;;21.93;42.03
76331;BME280;65148;51.912;15.570;2023-05-29T09:52:42;101984.36;;;22.78;44.29
76331;BME280;65148;51.912;15.570;2023-05-29T10:07:46;101977.64;;;23.33;40.21
76331;BME280;65148;51.912;15.570;2023-05-29T10:23:06;101975.06;;;23.60;39.46
76331;BME280;65148;51.912;15.570;2023-05-29T10:38:12;101975.54;;;23.29;36.30
76331;BME280;65148;51.912;15.570;2023-05-29T10:53:18;101969.02;;;23.13;40.10
76331;BME280;65148;51.912;15.570;2023-05-29T11:08:45;101962.37;;;23.06;39.06
76331;BME280;65148;51.912;15.570;2023-05-29T11:23:47;101941.30;;;23.05;41.37
76331;BME280;65148;51.912;15.570;2023-05-29T11:38:52;101950.42;;;23.95;34.28
76331;BME280;65148;51.912;15.570;2023-05-29T11:53:53;101947.76;;;23.29;37.39
76331;BME280;65148;51.912;15.570;2023-05-29T12:24:22;101923.64;;;24.67;34.86
76331;BME280;65148;51.912;15.570;2023-05-29T12:39:23;101924.92;;;24.70;33.30
76331;BME280;65148;51.912;15.570;2023-05-29T12:54:48;101911.81;;;24.06;36.73
76331;BME280;65148;51.912;15.570;2023-05-29T13:09:49;101897.55;;;24.88;36.16
76331;BME280;65148;51.912;15.570;2023-05-29T13:24:50;101895.35;;;24.65;34.17
76331;BME280;65148;51.912;15.570;2023-05-29T13:39:51;101889.27;;;25.03;34.80
76331;BME280;65148;51.912;15.570;2023-05-29T13:55:10;101887.59;;;24.59;33.50
76331;BME280;65148;51.912;15.570;2023-05-29T14:10:11;101885.16;;;24.57;33.37
76331;BME280;65148;51.912;15.570;2023-05-29T14:40:48;101884.05;;;25.02;32.19
76331;BME280;65148;51.912;15.570;2023-05-29T14:55:49;101893.04;;;24.95;31.63
76331;BME280;65148;51.912;15.570;2023-05-29T15:10:56;101877.67;;;25.01;35.22
76331;BME280;65148;51.912;15.570;2023-05-29T15:26:25;101866.76;;;24.00;33.71
76331;BME280;65148;51.912;15.570;2023-05-29T15:41:27;101852.02;;;24.00;34.52
76331;BME280;65148;51.912;15.570;2023-05-29T15:56:29;101865.02;;;23.59;35.13
76331;BME280;65148;51.912;15.570;2023-05-29T16:11:30;101853.23;;;23.05;35.72
76331;BME280;65148;51.912;15.570;2023-05-29T16:26:50;101870.09;;;23.45;33.24
76331;BME280;65148;51.912;15.570;2023-05-29T16:41:51;101861.74;;;23.33;35.93
76331;BME280;65148;51.912;15.570;2023-05-29T16:56:53;101865.31;;;22.76;36.04
76331;BME280;65148;51.912;15.570;2023-05-29T17:11:55;101873.57;;;22.43;33.57
76331;BME280;65148;51.912;15.570;2023-05-29T17:27:11;101882.79;;;22.14;35.97
76331;BME280;65148;51.912;15.570;2023-05-29T17:42:13;101886.55;;;21.80;36.06
76331;BME280;65148;51.912;15.570;2023-05-29T17:57:14;101894.13;;;21.25;36.12
76331;BME280;65148;51.912;15.570;2023-05-29T18:12:17;101900.03;;;20.97;37.36
76331;BME280;65148;51.912;15.570;2023-05-29T18:27:34;101899.73;;;20.47;40.60
76331;BME280;65148;51.912;15.570;2023-05-29T18:42:36;101906.98;;;20.09;40.31
76331;BME280;65148;51.912;15.570;2023-05-29T18:57:37;101909.30;;;19.67;42.43
76331;BME280;65148;51.912;15.570;2023-05-29T19:15:34;101908.52;;;19.13;44.22
76331;BME280;65148;51.912;15.570;2023-05-29T19:30:35;101928.92;;;18.81;45.93
76331;BME280;65148;51.912;15.570;2023-05-29T20:16:08;101993.87;;;17.97;48.90
76331;BME280;65148;51.912;15.570;2023-05-29T20:31:09;101994.07;;;17.73;50.25
76331;BME280;65148;51.912;15.570;2023-05-29T20:46:37;102001.16;;;17.28;53.09
76331;BME280;65148;51.912;15.570;2023-05-29T21:01:39;102008.05;;;16.93;53.55
76331;BME280;65148;51.912;15.570;2023-05-29T21:16:42;102011.15;;;16.67;52.14
76331;BME280;65148;51.912;15.570;2023-05-29T21:31:43;102023.88;;;16.39;51.97
76331;BME280;65148;51.912;15.570;2023-05-29T21:47:01;102036.81;;;16.15;53.09
76331;BME280;65148;51.912;15.570;2023-05-29T22:02:02;102033.22;;;15.91;54.13
76331;BME280;65148;51.912;15.570;2023-05-29T22:17:04;102041.23;;;15.58;55.69
76331;BME280;65148;51.912;15.570;2023-05-29T22:32:06;102045.47;;;15.41;56.57
76331;BME280;65148;51.912;15.570;2023-05-29T22:47:24;102042.15;;;15.10;57.39
76331;BME280;65148;51.912;15.570;2023-05-29T23:02:25;102053.48;;;14.93;58.60
76331;BME280;65148;51.912;15.570;2023-05-29T23:17:28;102053.86;;;14.81;59.52
76331;BME280;65148;51.912;15.570;2023-05-29T23:32:30;102051.95;;;14.72;59.74
76331;BME280;65148;51.912;15.570;2023-05-29T23:47:48;102061.95;;;14.42;61.43
